createdAt,value
2023-05-22T00:00:40.451Z,19.91
2023-05-22T00:03:43.943Z,19.85
2023-05-22T00:06:50.827Z,19.79
2023-05-22T00:09:55.152Z,19.79
2023-05-22T00:12:58.698Z,19.75
2023-05-22T00:16:03.454Z,19.71
2023-05-22T00:19:07.261Z,19.70
2023-05-22T00:22:10.974Z,19.69
2023-05-22T00:25:14.394Z,19.62
2023-05-22T00:28:17.880Z,19.62
2023-05-22T00:31:23.710Z,19.56
2023-05-22T00:34:27.136Z,19.51
2023-05-22T00:37:31.094Z,19.46
2023-05-22T00:40:34.586Z,19.46
2023-05-22T00:43:40.655Z,19.35
2023-05-22T00:46:45.675Z,19.33
2023-05-22T00:49:49.430Z,19.24
2023-05-22T00:52:52.648Z,19.16
2023-05-22T00:55:57.027Z,19.15
2023-05-22T00:59:01.031Z,19.13
2023-05-22T01:02:06.400Z,19.07
2023-05-22T01:05:13.414Z,19.05
2023-05-22T01:08:17.213Z,18.93
2023-05-22T01:11:28.173Z,18.87
2023-05-22T01:14:42.358Z,18.88
2023-05-22T01:18:11.301Z,18.83
2023-05-22T01:21:23.126Z,18.78
2023-05-22T01:24:54.670Z,18.77
2023-05-22T01:28:13.135Z,18.61
2023-05-22T01:31:21.185Z,18.60
2023-05-22T01:34:28.246Z,18.55
2023-05-22T01:37:32.701Z,18.44
2023-05-22T01:40:37.082Z,18.47
2023-05-22T01:43:41.299Z,18.48
2023-05-22T01:46:46.139Z,18.43
2023-05-22T01:49:49.634Z,18.38
2023-05-22T01:53:09.239Z,18.26
2023-05-22T01:56:18.109Z,18.15
2023-05-22T01:59:30.958Z,18.20
2023-05-22T02:02:40.002Z,18.11
2023-05-22T02:06:07.036Z,18.20
2023-05-22T02:09:12.034Z,18.12
2023-05-22T02:12:17.121Z,18.07
2023-05-22T02:15:21.635Z,17.98
2023-05-22T02:18:30.959Z,18.02
2023-05-22T02:21:37.070Z,17.94
2023-05-22T02:24:42.166Z,17.89
2023-05-22T02:27:49.565Z,17.84
2023-05-22T02:30:53.204Z,17.83
2023-05-22T02:33:57.938Z,17.78
2023-05-22T02:37:03.729Z,17.74
2023-05-22T02:40:10.218Z,17.65
2023-05-22T02:43:13.749Z,17.56
2023-05-22T02:46:17.303Z,17.54
2023-05-22T02:49:22.253Z,17.47
2023-05-22T02:52:25.873Z,17.49
2023-05-22T02:55:32.262Z,17.56
2023-05-22T02:58:35.960Z,17.49
2023-05-22T03:01:39.837Z,17.46
2023-05-22T03:04:47.165Z,17.33
2023-05-22T03:07:52.910Z,17.37
2023-05-22T03:10:58.925Z,17.31
2023-05-22T03:14:02.363Z,17.24
2023-05-22T03:17:06.899Z,17.28
2023-05-22T03:20:18.980Z,17.17
2023-05-22T03:23:25.208Z,17.13
2023-05-22T03:26:29.529Z,17.13
2023-05-22T03:29:33.987Z,17.05
2023-05-22T03:32:38.382Z,16.99
2023-05-22T03:35:44.654Z,17.01
2023-05-22T03:38:49.439Z,16.99
2023-05-22T03:41:53.095Z,17.02
2023-05-22T03:44:57.205Z,17.01
2023-05-22T03:48:02.121Z,16.92
2023-05-22T03:51:08.581Z,16.88
2023-05-22T03:54:12.190Z,16.85
2023-05-22T03:57:20.063Z,16.88
2023-05-22T04:00:25.788Z,16.86
2023-05-22T04:03:30.384Z,16.70
2023-05-22T04:06:43.019Z,16.80
2023-05-22T04:09:49.274Z,16.77
2023-05-22T04:12:53.084Z,16.80
2023-05-22T04:15:56.893Z,16.85
2023-05-22T04:19:01.572Z,16.92
2023-05-22T04:22:07.919Z,16.95
2023-05-22T04:25:11.657Z,16.96
2023-05-22T04:28:17.676Z,17.10
2023-05-22T04:31:23.538Z,17.19
2023-05-22T04:34:28.665Z,17.22
2023-05-22T04:37:45.614Z,17.31
2023-05-22T04:40:53.387Z,17.43
2023-05-22T04:43:56.592Z,17.47
2023-05-22T04:47:01.878Z,17.53
2023-05-22T04:50:05.906Z,17.54
2023-05-22T04:53:12.646Z,17.59
2023-05-22T04:56:36.763Z,17.61
2023-05-22T04:59:59.554Z,17.63
2023-05-22T05:03:03.451Z,17.63
2023-05-22T05:06:08.443Z,17.55
2023-05-22T05:09:15.913Z,17.64
2023-05-22T05:12:19.671Z,17.74
2023-05-22T05:15:24.989Z,17.71
2023-05-22T05:18:53.661Z,17.75
2023-05-22T05:22:09.580Z,17.77
2023-05-22T05:25:46.744Z,17.79
2023-05-22T05:28:51.466Z,17.79
2023-05-22T05:31:56.047Z,17.85
2023-05-22T05:35:11.890Z,17.88
2023-05-22T05:38:25.411Z,17.86
2023-05-22T05:41:31.348Z,17.83
2023-05-22T05:44:39.683Z,17.79
2023-05-22T05:47:44.057Z,17.83
2023-05-22T05:50:49.151Z,17.93
2023-05-22T05:53:52.402Z,18.05
2023-05-22T05:56:59.354Z,18.25
2023-05-22T06:00:05.319Z,18.44
2023-05-22T06:03:19.435Z,18.59
2023-05-22T06:06:35.789Z,18.57
2023-05-22T06:09:51.707Z,18.77
2023-05-22T06:13:23.026Z,18.97
2023-05-22T06:16:30.025Z,18.96
2023-05-22T06:19:37.471Z,19.06
2023-05-22T06:22:41.164Z,19.11
2023-05-22T06:25:45.341Z,19.05
2023-05-22T06:28:59.796Z,19.09
2023-05-22T06:32:13.692Z,19.33
2023-05-22T06:35:20.861Z,19.43
2023-05-22T06:38:27.765Z,19.65
2023-05-22T06:41:33.693Z,19.78
2023-05-22T06:44:42.298Z,19.62
2023-05-22T06:47:46.205Z,19.79
2023-05-22T06:51:16.666Z,19.96
2023-05-22T06:54:52.686Z,19.79
2023-05-22T06:58:24.718Z,19.76
2023-05-22T07:01:30.417Z,19.84
2023-05-22T07:04:43.985Z,20.03
2023-05-22T07:07:51.107Z,20.04
2023-05-22T07:11:01.062Z,20.24
2023-05-22T07:14:05.022Z,20.34
2023-05-22T07:17:12.603Z,20.32
2023-05-22T07:20:21.416Z,20.54
2023-05-22T07:23:36.961Z,20.74
2023-05-22T07:26:46.826Z,20.71
2023-05-22T07:29:52.215Z,20.83
2023-05-22T07:32:57.987Z,20.92
2023-05-22T07:36:01.925Z,21.12
2023-05-22T07:39:07.513Z,21.22
2023-05-22T07:42:21.836Z,21.67
2023-05-22T07:45:35.051Z,21.63
2023-05-22T07:48:45.173Z,21.84
2023-05-22T07:51:49.668Z,21.83
2023-05-22T07:54:54.675Z,21.81
2023-05-22T07:58:04.293Z,22.10
2023-05-22T08:01:19.551Z,22.38
2023-05-22T08:04:24.555Z,22.36
2023-05-22T08:07:30.653Z,22.56
2023-05-22T08:10:47.142Z,22.57
2023-05-22T08:14:03.305Z,22.79
2023-05-22T08:17:10.196Z,22.85
2023-05-22T08:20:17.504Z,22.75
2023-05-22T08:23:21.258Z,22.90
2023-05-22T08:26:50.161Z,23.11
2023-05-22T08:29:56.820Z,23.38
2023-05-22T08:33:05.107Z,23.63
2023-05-22T08:36:14.481Z,23.89
2023-05-22T08:39:20.954Z,24.14
2023-05-22T08:42:24.539Z,23.87
2023-05-22T08:45:30.080Z,23.90
2023-05-22T08:48:34.633Z,24.00
2023-05-22T08:51:43.767Z,23.88
2023-05-22T08:54:55.388Z,23.93
2023-05-22T08:58:01.636Z,23.91
2023-05-22T09:01:21.529Z,24.36
2023-05-22T09:04:29.838Z,24.62
2023-05-22T09:07:41.409Z,24.36
2023-05-22T09:10:47.494Z,24.63
2023-05-22T09:13:52.398Z,24.78
2023-05-22T09:16:59.601Z,24.63
2023-05-22T09:20:08.720Z,24.93
2023-05-22T09:23:15.623Z,24.79
2023-05-22T09:26:20.688Z,24.98
2023-05-22T09:29:27.640Z,25.14
2023-05-22T09:32:31.931Z,25.35
2023-05-22T09:35:39.663Z,25.14
2023-05-22T09:38:47.994Z,25.25
2023-05-22T09:41:54.365Z,24.76
2023-05-22T09:44:59.217Z,24.76
2023-05-22T09:48:02.981Z,24.69
2023-05-22T09:51:21.561Z,25.01
2023-05-22T09:54:43.685Z,25.12
2023-05-22T09:57:52.001Z,25.32
2023-05-22T10:00:57.743Z,24.94
2023-05-22T10:04:03.925Z,24.69
2023-05-22T10:07:08.051Z,25.04
2023-05-22T10:10:15.875Z,25.18
2023-05-22T10:13:20.944Z,25.41
2023-05-22T10:16:25.913Z,25.26
2023-05-22T10:19:31.409Z,25.44
2023-05-22T10:22:36.785Z,25.46
2023-05-22T10:25:42.193Z,25.96
2023-05-22T10:28:55.740Z,26.34
2023-05-22T10:32:11.028Z,26.39
2023-05-22T10:35:33.844Z,26.01
2023-05-22T10:39:07.569Z,26.13
2023-05-22T10:42:31.765Z,25.82
2023-05-22T10:45:37.829Z,26.12
2023-05-22T10:48:51.784Z,26.36
2023-05-22T10:52:10.444Z,26.16
2023-05-22T10:55:14.968Z,26.04
2023-05-22T10:58:27.467Z,25.96
2023-05-22T11:01:40.538Z,25.89
2023-05-22T11:04:52.361Z,25.90
2023-05-22T11:08:37.427Z,26.01
2023-05-22T11:11:43.506Z,26.35
2023-05-22T11:14:56.925Z,26.55
2023-05-22T11:18:15.690Z,26.62
2023-05-22T11:21:25.780Z,26.94
2023-05-22T11:24:37.389Z,26.54
2023-05-22T11:27:59.444Z,26.27
2023-05-22T11:31:06.994Z,26.41
2023-05-22T11:34:18.569Z,26.53
2023-05-22T11:37:25.215Z,26.74
2023-05-22T11:40:32.172Z,26.49
2023-05-22T11:43:39.078Z,26.79
2023-05-22T11:46:56.449Z,26.85
2023-05-22T11:50:40.402Z,26.69
2023-05-22T11:53:48.024Z,26.45
2023-05-22T11:56:57.165Z,26.65
2023-05-22T12:00:00.994Z,26.57
2023-05-22T12:03:10.948Z,26.63
2023-05-22T12:06:21.536Z,26.58
2023-05-22T12:09:30.939Z,26.66
2023-05-22T12:12:41.694Z,26.57
2023-05-22T12:16:00.745Z,26.87
2023-05-22T12:19:18.910Z,26.93
2023-05-22T12:22:35.050Z,27.02
2023-05-22T12:25:38.325Z,27.40
2023-05-22T12:28:47.744Z,27.40
2023-05-22T12:32:09.503Z,27.24
2023-05-22T12:35:18.345Z,27.64
2023-05-22T12:38:34.743Z,27.06
2023-05-22T12:41:38.837Z,27.42
2023-05-22T12:44:58.265Z,27.44
2023-05-22T12:48:19.282Z,27.51
2023-05-22T12:51:32.091Z,28.28
2023-05-22T12:54:36.946Z,28.29
2023-05-22T12:57:43.453Z,28.45
2023-05-22T13:00:47.403Z,27.78
2023-05-22T13:03:55.135Z,28.26
2023-05-22T13:07:00.012Z,28.59
2023-05-22T13:10:17.580Z,28.73
2023-05-22T13:13:20.931Z,28.75
2023-05-22T13:16:24.448Z,28.51
2023-05-22T13:19:28.130Z,29.02
2023-05-22T13:22:34.180Z,28.46
2023-05-22T13:25:46.009Z,28.82
2023-05-22T13:28:49.412Z,28.67
2023-05-22T13:31:53.095Z,28.34
2023-05-22T13:34:59.238Z,28.68
2023-05-22T13:38:04.213Z,29.48
2023-05-22T13:41:07.824Z,29.43
2023-05-22T13:44:11.469Z,29.66
2023-05-22T13:47:17.650Z,29.55
2023-05-22T13:50:21.162Z,29.63
2023-05-22T13:53:29.056Z,30.13
2023-05-22T13:56:34.499Z,29.55
2023-05-22T13:59:46.378Z,29.19
2023-05-22T14:02:50.113Z,29.41
2023-05-22T14:05:53.757Z,29.77
2023-05-22T14:09:00.318Z,29.91
2023-05-22T14:12:08.777Z,29.61
2023-05-22T14:15:17.896Z,29.67
2023-05-22T14:18:23.745Z,29.39
2023-05-22T14:21:27.263Z,29.07
2023-05-22T14:24:33.063Z,29.21
2023-05-22T14:27:36.388Z,29.29
2023-05-22T14:30:40.933Z,29.10
2023-05-22T14:33:45.462Z,29.05
2023-05-22T14:36:48.782Z,29.48
2023-05-22T14:39:53.823Z,29.67
2023-05-22T14:43:08.168Z,29.55
2023-05-22T14:46:12.578Z,29.72
2023-05-22T14:49:16.647Z,29.73
2023-05-22T14:52:20.045Z,29.74
2023-05-22T14:55:28.367Z,29.57
2023-05-22T14:58:31.833Z,29.77
2023-05-22T15:01:37.151Z,29.93
2023-05-22T15:04:40.968Z,29.94
2023-05-22T15:07:48.399Z,29.96
2023-05-22T15:10:55.290Z,29.87
2023-05-22T15:14:01.305Z,29.43
2023-05-22T15:17:04.847Z,29.17
2023-05-22T15:20:12.876Z,28.68
2023-05-22T15:23:16.488Z,28.89
2023-05-22T15:26:38.520Z,29.36
2023-05-22T15:29:47.019Z,29.42
2023-05-22T15:32:50.608Z,29.55
2023-05-22T15:35:54.080Z,29.70
2023-05-22T15:38:57.435Z,29.55
2023-05-22T15:42:06.825Z,29.06
2023-05-22T15:45:13.828Z,29.32
2023-05-22T15:48:21.960Z,28.58
2023-05-22T15:51:27.708Z,28.57
2023-05-22T15:54:33.190Z,28.32
2023-05-22T15:57:41.213Z,28.39
2023-05-22T16:00:49.287Z,27.96
2023-05-22T16:03:57.418Z,27.44
2023-05-22T16:07:01.118Z,27.05
2023-05-22T16:10:09.429Z,27.38
2023-05-22T16:13:15.082Z,27.29
2023-05-22T16:16:18.813Z,26.74
2023-05-22T16:19:36.395Z,26.98
2023-05-22T16:22:48.177Z,26.62
2023-05-22T16:25:54.514Z,26.73
2023-05-22T16:29:07.693Z,26.85
2023-05-22T16:32:11.456Z,26.63
2023-05-22T16:35:19.083Z,26.66
2023-05-22T16:38:24.160Z,26.54
2023-05-22T16:41:30.052Z,26.44
2023-05-22T16:44:40.581Z,25.92
2023-05-22T16:47:44.313Z,25.87
2023-05-22T16:50:50.603Z,25.74
2023-05-22T16:53:57.148Z,25.81
2023-05-22T16:57:15.074Z,25.86
2023-05-22T17:00:23.606Z,25.80
2023-05-22T17:03:27.213Z,25.86
2023-05-22T17:06:31.884Z,25.66
2023-05-22T17:09:37.690Z,25.68
2023-05-22T17:12:43.877Z,25.60
2023-05-22T17:15:54.294Z,25.60
2023-05-22T17:18:58.038Z,25.57
2023-05-22T17:22:01.457Z,25.40
2023-05-22T17:25:09.659Z,25.42
2023-05-22T17:28:20.988Z,25.35
2023-05-22T17:31:25.982Z,25.34
2023-05-22T17:34:32.331Z,25.36
2023-05-22T17:37:41.680Z,25.13
2023-05-22T17:40:47.681Z,24.97
2023-05-22T17:43:51.676Z,25.03
2023-05-22T17:46:58.812Z,24.92
2023-05-22T17:50:03.217Z,24.76
2023-05-22T17:53:06.769Z,24.53
2023-05-22T17:56:10.284Z,24.46
2023-05-22T17:59:13.468Z,24.41
2023-05-22T18:02:19.063Z,24.38
2023-05-22T18:05:24.696Z,24.29
2023-05-22T18:08:28.520Z,24.23
2023-05-22T18:12:02.230Z,24.09
2023-05-22T18:15:17.300Z,24.01
2023-05-22T18:19:06.175Z,24.01
2023-05-22T18:23:15.795Z,23.85
2023-05-22T18:32:53.290Z,23.48
2023-05-22T18:53:06.375Z,22.95
2023-05-22T19:02:59.320Z,22.70
2023-05-22T19:18:12.830Z,22.25
2023-05-22T19:36:47.713Z,21.92
2023-05-22T19:50:03.730Z,21.39
2023-05-22T19:53:19.718Z,21.25
2023-05-22T19:56:40.256Z,21.35
2023-05-22T19:59:52.334Z,21.03
2023-05-22T20:13:11.403Z,20.93
2023-05-22T20:22:18.325Z,20.76
2023-05-22T20:25:26.105Z,20.61
2023-05-22T20:28:33.335Z,20.61
2023-05-22T20:36:26.937Z,20.40
2023-05-22T20:39:50.446Z,19.98
2023-05-22T20:43:15.694Z,19.97
2023-05-22T20:46:47.909Z,19.97
2023-05-22T20:50:28.705Z,20.01
2023-05-22T20:54:32.016Z,19.99
2023-05-22T20:58:41.787Z,19.79
2023-05-22T21:13:04.800Z,19.73
2023-05-22T21:27:33.826Z,19.62
2023-05-22T21:31:54.557Z,19.58
2023-05-22T21:41:38.987Z,19.26
2023-05-22T21:46:12.094Z,19.23
2023-05-22T22:00:12.944Z,19.15
2023-05-22T22:04:10.495Z,19.18
2023-05-22T22:08:02.368Z,19.11
2023-05-22T22:11:53.184Z,18.93
2023-05-22T22:21:08.866Z,18.79
2023-05-22T22:25:58.885Z,18.74
2023-05-22T22:35:21.559Z,18.72
2023-05-22T22:38:53.271Z,18.73
2023-05-22T22:42:21.215Z,18.59
2023-05-22T22:45:51.783Z,18.76
2023-05-22T22:49:43.923Z,18.65
2023-05-22T22:53:00.595Z,18.66
2023-05-22T22:56:20.220Z,18.55
2023-05-22T23:04:36.259Z,18.55
2023-05-22T23:07:57.372Z,18.50
2023-05-22T23:12:27.468Z,18.50
2023-05-22T23:15:51.361Z,18.50
2023-05-22T23:19:31.787Z,18.57
2023-05-22T23:23:04.725Z,18.51
2023-05-22T23:30:20.483Z,18.56
2023-05-22T23:33:28.889Z,18.38
2023-05-22T23:40:42.950Z,18.39
2023-05-22T23:44:03.654Z,18.37
2023-05-22T23:47:31.230Z,18.29
2023-05-22T23:55:33.959Z,18.17
2023-05-22T23:58:49.398Z,18.22
